sensor_id;sensor_type;location;lat;lon;timestamp;temperature;humidity
79760;DHT22;70512;42.122;24.732;2023-10-09T00:00:34;22.80;42.20
79760;DHT22;70512;42.122;24.732;2023-10-09T00:03:07;22.70;42.20
79760;DHT22;70512;42.122;24.732;2023-10-09T00:05:34;22.70;42.40
79760;DHT22;70512;42.122;24.732;2023-10-09T00:08:14;22.70;42.40
79760;DHT22;70512;42.122;24.732;2023-10-09T00:10:59;22.70;42.60
79760;DHT22;70512;42.122;24.732;2023-10-09T00:13:29;22.50;42.70
79760;DHT22;70512;42.122;24.732;2023-10-09T00:16:06;22.50;43.10
79760;DHT22;70512;42.122;24.732;2023-10-09T00:18:38;22.50;43.10
79760;DHT22;70512;42.122;24.732;2023-10-09T00:21:05;22.40;43.20
79760;DHT22;70512;42.122;24.732;2023-10-09T00:23:39;22.30;43.50
79760;DHT22;70512;42.122;24.732;2023-10-09T00:26:09;22.30;43.90
79760;DHT22;70512;42.122;24.732;2023-10-09T00:28:41;22.20;44.00
79760;DHT22;70512;42.122;24.732;2023-10-09T00:31:10;22.20;44.20
79760;DHT22;70512;42.122;24.732;2023-10-09T00:33:43;22.10;44.40
79760;DHT22;70512;42.122;24.732;2023-10-09T00:36:11;22.10;44.50
79760;DHT22;70512;42.122;24.732;2023-10-09T00:38:40;21.90;44.80
79760;DHT22;70512;42.122;24.732;2023-10-09T00:41:15;21.90;45.00
79760;DHT22;70512;42.122;24.732;2023-10-09T00:43:44;21.80;45.10
79760;DHT22;70512;42.122;24.732;2023-10-09T00:46:12;21.80;45.30
79760;DHT22;70512;42.122;24.732;2023-10-09T00:48:41;21.80;45.00
79760;DHT22;70512;42.122;24.732;2023-10-09T00:51:09;21.80;44.90
79760;DHT22;70512;42.122;24.732;2023-10-09T00:53:45;21.80;44.70
79760;DHT22;70512;42.122;24.732;2023-10-09T00:56:14;21.80;44.60
79760;DHT22;70512;42.122;24.732;2023-10-09T00:58:51;21.70;44.20
79760;DHT22;70512;42.122;24.732;2023-10-09T01:01:21;21.70;44.20
79760;DHT22;70512;42.122;24.732;2023-10-09T01:03:50;21.70;44.00
79760;DHT22;70512;42.122;24.732;2023-10-09T01:06:18;21.70;43.80
79760;DHT22;70512;42.122;24.732;2023-10-09T01:08:47;21.70;43.60
79760;DHT22;70512;42.122;24.732;2023-10-09T01:11:17;21.70;43.60
79760;DHT22;70512;42.122;24.732;2023-10-09T01:13:47;21.60;43.70
79760;DHT22;70512;42.122;24.732;2023-10-09T01:16:18;21.60;43.60
79760;DHT22;70512;42.122;24.732;2023-10-09T01:18:49;21.60;43.60
79760;DHT22;70512;42.122;24.732;2023-10-09T01:21:18;21.60;43.50
79760;DHT22;70512;42.122;24.732;2023-10-09T01:23:48;21.60;43.50
79760;DHT22;70512;42.122;24.732;2023-10-09T01:26:33;21.60;43.30
79760;DHT22;70512;42.122;24.732;2023-10-09T01:29:03;21.50;43.60
79760;DHT22;70512;42.122;24.732;2023-10-09T01:31:32;21.40;43.90
79760;DHT22;70512;42.122;24.732;2023-10-09T01:34:01;21.30;43.70
79760;DHT22;70512;42.122;24.732;2023-10-09T01:36:31;21.30;43.80
79760;DHT22;70512;42.122;24.732;2023-10-09T01:39:00;21.30;43.60
79760;DHT22;70512;42.122;24.732;2023-10-09T01:41:32;21.30;43.70
79760;DHT22;70512;42.122;24.732;2023-10-09T01:44:00;21.30;43.80
79760;DHT22;70512;42.122;24.732;2023-10-09T01:46:29;21.20;44.20
79760;DHT22;70512;42.122;24.732;2023-10-09T01:48:58;21.20;44.50
79760;DHT22;70512;42.122;24.732;2023-10-09T01:51:28;21.10;44.60
79760;DHT22;70512;42.122;24.732;2023-10-09T01:53:57;21.10;44.90
79760;DHT22;70512;42.122;24.732;2023-10-09T01:56:25;21.00;45.20
79760;DHT22;70512;42.122;24.732;2023-10-09T01:58:52;20.90;45.50
79760;DHT22;70512;42.122;24.732;2023-10-09T02:01:22;20.80;45.70
79760;DHT22;70512;42.122;24.732;2023-10-09T02:03:50;20.70;45.80
79760;DHT22;70512;42.122;24.732;2023-10-09T02:06:18;20.70;46.00
79760;DHT22;70512;42.122;24.732;2023-10-09T02:08:53;20.60;46.30
79760;DHT22;70512;42.122;24.732;2023-10-09T02:11:22;20.50;46.30
79760;DHT22;70512;42.122;24.732;2023-10-09T02:14:04;20.40;47.20
79760;DHT22;70512;42.122;24.732;2023-10-09T02:16:33;20.30;46.90
79760;DHT22;70512;42.122;24.732;2023-10-09T02:19:02;20.30;46.90
79760;DHT22;70512;42.122;24.732;2023-10-09T02:21:31;20.20;47.00
79760;DHT22;70512;42.122;24.732;2023-10-09T02:24:04;20.20;47.20
79760;DHT22;70512;42.122;24.732;2023-10-09T02:26:33;20.20;47.20
79760;DHT22;70512;42.122;24.732;2023-10-09T02:29:14;20.10;47.80
79760;DHT22;70512;42.122;24.732;2023-10-09T02:31:43;20.10;48.30
79760;DHT22;70512;42.122;24.732;2023-10-09T02:34:16;19.90;48.20
79760;DHT22;70512;42.122;24.732;2023-10-09T02:36:43;19.70;48.20
79760;DHT22;70512;42.122;24.732;2023-10-09T02:39:12;19.60;48.50
79760;DHT22;70512;42.122;24.732;2023-10-09T02:41:57;19.40;48.10
79760;DHT22;70512;42.122;24.732;2023-10-09T02:44:35;19.20;48.00
79760;DHT22;70512;42.122;24.732;2023-10-09T02:47:04;19.00;48.10
79760;DHT22;70512;42.122;24.732;2023-10-09T02:49:34;18.90;48.20
79760;DHT22;70512;42.122;24.732;2023-10-09T02:52:01;18.80;48.30
79760;DHT22;70512;42.122;24.732;2023-10-09T02:54:34;18.50;48.30
79760;DHT22;70512;42.122;24.732;2023-10-09T02:57:02;18.40;48.60
79760;DHT22;70512;42.122;24.732;2023-10-09T02:59:35;18.20;48.70
79760;DHT22;70512;42.122;24.732;2023-10-09T03:02:04;18.00;48.80
79760;DHT22;70512;42.122;24.732;2023-10-09T03:04:32;17.90;49.00
79760;DHT22;70512;42.122;24.732;2023-10-09T03:07:01;17.80;49.30
79760;DHT22;70512;42.122;24.732;2023-10-09T03:09:30;17.80;49.30
79760;DHT22;70512;42.122;24.732;2023-10-09T03:12:00;17.70;49.20
79760;DHT22;70512;42.122;24.732;2023-10-09T03:14:33;17.70;49.20
79760;DHT22;70512;42.122;24.732;2023-10-09T03:17:05;17.70;49.20
79760;DHT22;70512;42.122;24.732;2023-10-09T03:19:34;17.60;49.10
79760;DHT22;70512;42.122;24.732;2023-10-09T03:22:07;17.60;48.90
79760;DHT22;70512;42.122;24.732;2023-10-09T03:24:38;17.60;48.90
79760;DHT22;70512;42.122;24.732;2023-10-09T03:27:07;17.60;48.90
79760;DHT22;70512;42.122;24.732;2023-10-09T03:29:35;17.60;48.90
79760;DHT22;70512;42.122;24.732;2023-10-09T03:32:03;17.60;48.90
79760;DHT22;70512;42.122;24.732;2023-10-09T03:34:32;17.50;49.00
79760;DHT22;70512;42.122;24.732;2023-10-09T03:37:00;17.50;49.20
79760;DHT22;70512;42.122;24.732;2023-10-09T03:39:32;17.50;49.10
79760;DHT22;70512;42.122;24.732;2023-10-09T03:42:04;17.50;49.10
79760;DHT22;70512;42.122;24.732;2023-10-09T03:44:32;17.50;49.10
79760;DHT22;70512;42.122;24.732;2023-10-09T03:47:02;17.50;48.90
79760;DHT22;70512;42.122;24.732;2023-10-09T03:49:31;17.50;48.80
79760;DHT22;70512;42.122;24.732;2023-10-09T03:51:59;17.50;48.90
79760;DHT22;70512;42.122;24.732;2023-10-09T03:54:26;17.50;48.70
79760;DHT22;70512;42.122;24.732;2023-10-09T03:56:55;17.50;48.60
79760;DHT22;70512;42.122;24.732;2023-10-09T03:59:25;17.50;48.70
79760;DHT22;70512;42.122;24.732;2023-10-09T04:01:54;17.50;48.50
79760;DHT22;70512;42.122;24.732;2023-10-09T04:04:23;17.50;48.30
79760;DHT22;70512;42.122;24.732;2023-10-09T04:06:51;17.40;48.00
79760;DHT22;70512;42.122;24.732;2023-10-09T04:09:19;17.30;48.00
79760;DHT22;70512;42.122;24.732;2023-10-09T04:11:52;17.20;48.10
79760;DHT22;70512;42.122;24.732;2023-10-09T04:14:40;17.20;48.10
79760;DHT22;70512;42.122;24.732;2023-10-09T04:17:27;17.20;48.00
79760;DHT22;70512;42.122;24.732;2023-10-09T04:20:03;17.20;48.10
79760;DHT22;70512;42.122;24.732;2023-10-09T04:22:44;17.20;48.10
79760;DHT22;70512;42.122;24.732;2023-10-09T04:25:20;17.20;48.10
79760;DHT22;70512;42.122;24.732;2023-10-09T04:27:58;17.20;48.10
79760;DHT22;70512;42.122;24.732;2023-10-09T04:30:45;17.20;48.60
79760;DHT22;70512;42.122;24.732;2023-10-09T04:33:22;17.20;47.50
79760;DHT22;70512;42.122;24.732;2023-10-09T04:36:08;17.20;46.30
79760;DHT22;70512;42.122;24.732;2023-10-09T04:38:47;17.10;46.10
79760;DHT22;70512;42.122;24.732;2023-10-09T04:41:32;17.00;46.20
79760;DHT22;70512;42.122;24.732;2023-10-09T04:44:02;17.00;46.00
79760;DHT22;70512;42.122;24.732;2023-10-09T04:46:34;16.90;45.80
79760;DHT22;70512;42.122;24.732;2023-10-09T04:49:04;16.80;45.70
79760;DHT22;70512;42.122;24.732;2023-10-09T04:51:33;16.80;45.90
79760;DHT22;70512;42.122;24.732;2023-10-09T04:54:05;16.80;45.80
79760;DHT22;70512;42.122;24.732;2023-10-09T04:56:44;16.70;45.70
79760;DHT22;70512;42.122;24.732;2023-10-09T04:59:20;16.70;45.50
79760;DHT22;70512;42.122;24.732;2023-10-09T05:01:50;16.70;45.30
79760;DHT22;70512;42.122;24.732;2023-10-09T05:04:19;16.70;45.40
79760;DHT22;70512;42.122;24.732;2023-10-09T05:06:55;16.70;45.40
79760;DHT22;70512;42.122;24.732;2023-10-09T05:09:23;16.70;45.20
79760;DHT22;70512;42.122;24.732;2023-10-09T05:11:52;16.80;45.20
79760;DHT22;70512;42.122;24.732;2023-10-09T05:14:20;16.80;44.80
79760;DHT22;70512;42.122;24.732;2023-10-09T05:16:50;16.80;44.50
79760;DHT22;70512;42.122;24.732;2023-10-09T05:19:25;16.80;44.40
79760;DHT22;70512;42.122;24.732;2023-10-09T05:21:57;16.80;44.30
79760;DHT22;70512;42.122;24.732;2023-10-09T05:24:27;16.80;44.00
79760;DHT22;70512;42.122;24.732;2023-10-09T05:26:56;16.80;43.90
79760;DHT22;70512;42.122;24.732;2023-10-09T05:29:26;16.90;43.70
79760;DHT22;70512;42.122;24.732;2023-10-09T05:32:03;16.80;43.00
79760;DHT22;70512;42.122;24.732;2023-10-09T05:34:47;16.90;42.30
79760;DHT22;70512;42.122;24.732;2023-10-09T05:37:16;16.80;41.90
79760;DHT22;70512;42.122;24.732;2023-10-09T05:39:55;16.80;41.80
79760;DHT22;70512;42.122;24.732;2023-10-09T05:42:32;16.80;41.70
79760;DHT22;70512;42.122;24.732;2023-10-09T05:45:17;16.70;42.20
79760;DHT22;70512;42.122;24.732;2023-10-09T05:47:48;16.90;41.70
79760;DHT22;70512;42.122;24.732;2023-10-09T05:50:32;16.80;41.60
79760;DHT22;70512;42.122;24.732;2023-10-09T05:53:01;16.70;42.00
79760;DHT22;70512;42.122;24.732;2023-10-09T05:55:32;16.50;42.40
79760;DHT22;70512;42.122;24.732;2023-10-09T05:58:17;16.50;42.80
79760;DHT22;70512;42.122;24.732;2023-10-09T06:01:03;16.60;42.70
79760;DHT22;70512;42.122;24.732;2023-10-09T06:03:49;16.70;42.60
79760;DHT22;70512;42.122;24.732;2023-10-09T06:06:18;16.90;42.20
79760;DHT22;70512;42.122;24.732;2023-10-09T06:08:47;16.90;41.80
79760;DHT22;70512;42.122;24.732;2023-10-09T06:11:16;17.10;41.60
79760;DHT22;70512;42.122;24.732;2023-10-09T06:14:01;17.20;41.30
79760;DHT22;70512;42.122;24.732;2023-10-09T06:16:37;17.40;41.10
79760;DHT22;70512;42.122;24.732;2023-10-09T06:19:12;17.50;40.40
79760;DHT22;70512;42.122;24.732;2023-10-09T06:21:44;17.60;40.20
79760;DHT22;70512;42.122;24.732;2023-10-09T06:24:30;17.70;39.70
79760;DHT22;70512;42.122;24.732;2023-10-09T06:27:02;17.80;39.30
79760;DHT22;70512;42.122;24.732;2023-10-09T06:29:34;17.80;39.20
79760;DHT22;70512;42.122;24.732;2023-10-09T06:32:07;17.80;38.90
79760;DHT22;70512;42.122;24.732;2023-10-09T06:34:57;17.80;38.80
79760;DHT22;70512;42.122;24.732;2023-10-09T06:37:24;17.90;38.70
79760;DHT22;70512;42.122;24.732;2023-10-09T06:39:55;18.00;38.80
79760;DHT22;70512;42.122;24.732;2023-10-09T06:42:25;18.00;38.50
79760;DHT22;70512;42.122;24.732;2023-10-09T06:45:09;18.10;38.50
79760;DHT22;70512;42.122;24.732;2023-10-09T06:47:48;18.20;38.00
79760;DHT22;70512;42.122;24.732;2023-10-09T06:50:14;18.10;38.10
79760;DHT22;70512;42.122;24.732;2023-10-09T06:52:49;18.20;37.90
79760;DHT22;70512;42.122;24.732;2023-10-09T06:55:38;18.20;38.00
79760;DHT22;70512;42.122;24.732;2023-10-09T06:58:08;18.20;38.00
79760;DHT22;70512;42.122;24.732;2023-10-09T07:00:40;18.20;37.90
79760;DHT22;70512;42.122;24.732;2023-10-09T07:03:28;18.30;38.00
79760;DHT22;70512;42.122;24.732;2023-10-09T07:06:09;18.30;37.90
79760;DHT22;70512;42.122;24.732;2023-10-09T07:08:38;18.40;37.70
79760;DHT22;70512;42.122;24.732;2023-10-09T07:11:08;18.50;37.90
79760;DHT22;70512;42.122;24.732;2023-10-09T07:13:47;18.60;37.70
79760;DHT22;70512;42.122;24.732;2023-10-09T07:16:20;18.60;37.50
79760;DHT22;70512;42.122;24.732;2023-10-09T07:18:50;18.70;37.40
79760;DHT22;70512;42.122;24.732;2023-10-09T07:21:21;18.70;37.20
79760;DHT22;70512;42.122;24.732;2023-10-09T07:23:50;18.80;37.20
79760;DHT22;70512;42.122;24.732;2023-10-09T07:26:19;18.80;37.30
79760;DHT22;70512;42.122;24.732;2023-10-09T07:28:48;18.70;37.50
79760;DHT22;70512;42.122;24.732;2023-10-09T07:31:20;18.70;37.40
79760;DHT22;70512;42.122;24.732;2023-10-09T07:33:51;18.70;37.50
79760;DHT22;70512;42.122;24.732;2023-10-09T07:36:26;18.70;37.50
79760;DHT22;70512;42.122;24.732;2023-10-09T07:38:58;18.70;37.60
79760;DHT22;70512;42.122;24.732;2023-10-09T07:41:32;18.60;37.80
79760;DHT22;70512;42.122;24.732;2023-10-09T07:44:00;18.50;38.00
79760;DHT22;70512;42.122;24.732;2023-10-09T07:46:29;18.40;38.20
79760;DHT22;70512;42.122;24.732;2023-10-09T07:48:57;18.40;38.70
79760;DHT22;70512;42.122;24.732;2023-10-09T07:51:27;18.40;38.70
79760;DHT22;70512;42.122;24.732;2023-10-09T07:54:00;18.40;39.10
79760;DHT22;70512;42.122;24.732;2023-10-09T07:56:42;18.40;39.10
79760;DHT22;70512;42.122;24.732;2023-10-09T07:59:13;18.30;38.60
79760;DHT22;70512;42.122;24.732;2023-10-09T08:01:48;18.40;38.70
79760;DHT22;70512;42.122;24.732;2023-10-09T08:04:24;18.40;38.70
79760;DHT22;70512;42.122;24.732;2023-10-09T08:07:05;18.50;39.10
79760;DHT22;70512;42.122;24.732;2023-10-09T08:09:35;18.50;39.30
79760;DHT22;70512;42.122;24.732;2023-10-09T08:12:16;18.60;39.80
79760;DHT22;70512;42.122;24.732;2023-10-09T08:15:02;18.70;39.20
79760;DHT22;70512;42.122;24.732;2023-10-09T08:17:52;18.80;39.00
79760;DHT22;70512;42.122;24.732;2023-10-09T08:20:28;18.80;38.80
79760;DHT22;70512;42.122;24.732;2023-10-09T08:22:57;18.90;38.90
79760;DHT22;70512;42.122;24.732;2023-10-09T08:25:26;18.90;38.90
79760;DHT22;70512;42.122;24.732;2023-10-09T08:27:59;18.90;39.00
79760;DHT22;70512;42.122;24.732;2023-10-09T08:30:43;18.90;39.20
79760;DHT22;70512;42.122;24.732;2023-10-09T08:33:12;18.90;39.50
79760;DHT22;70512;42.122;24.732;2023-10-09T08:35:57;19.00;39.30
79760;DHT22;70512;42.122;24.732;2023-10-09T08:38:34;19.10;39.00
79760;DHT22;70512;42.122;24.732;2023-10-09T08:41:09;19.20;39.20
79760;DHT22;70512;42.122;24.732;2023-10-09T08:43:53;19.10;38.80
79760;DHT22;70512;42.122;24.732;2023-10-09T08:46:25;19.20;39.10
79760;DHT22;70512;42.122;24.732;2023-10-09T08:48:58;19.20;39.10
79760;DHT22;70512;42.122;24.732;2023-10-09T08:51:27;19.30;39.20
79760;DHT22;70512;42.122;24.732;2023-10-09T08:53:57;19.30;39.00
79760;DHT22;70512;42.122;24.732;2023-10-09T08:56:24;19.40;39.10
79760;DHT22;70512;42.122;24.732;2023-10-09T08:58:59;19.40;38.80
79760;DHT22;70512;42.122;24.732;2023-10-09T09:01:28;19.30;39.00
79760;DHT22;70512;42.122;24.732;2023-10-09T09:03:58;19.30;39.20
79760;DHT22;70512;42.122;24.732;2023-10-09T09:06:27;19.40;39.50
79760;DHT22;70512;42.122;24.732;2023-10-09T09:08:57;19.30;39.40
79760;DHT22;70512;42.122;24.732;2023-10-09T09:11:28;19.10;40.10
79760;DHT22;70512;42.122;24.732;2023-10-09T09:14:06;19.30;40.00
79760;DHT22;70512;42.122;24.732;2023-10-09T09:16:31;19.40;39.80
79760;DHT22;70512;42.122;24.732;2023-10-09T09:19:03;19.30;39.80
79760;DHT22;70512;42.122;24.732;2023-10-09T09:21:41;19.40;39.80
79760;DHT22;70512;42.122;24.732;2023-10-09T09:24:11;19.00;40.40
79760;DHT22;70512;42.122;24.732;2023-10-09T09:26:48;19.00;40.50
79760;DHT22;70512;42.122;24.732;2023-10-09T09:29:17;19.20;40.40
79760;DHT22;70512;42.122;24.732;2023-10-09T09:31:54;19.40;40.40
79760;DHT22;70512;42.122;24.732;2023-10-09T09:34:23;19.40;40.20
79760;DHT22;70512;42.122;24.732;2023-10-09T09:36:57;19.50;40.00
79760;DHT22;70512;42.122;24.732;2023-10-09T09:39:28;19.60;39.90
79760;DHT22;70512;42.122;24.732;2023-10-09T09:41:58;19.70;39.80
79760;DHT22;70512;42.122;24.732;2023-10-09T09:44:27;19.70;39.50
79760;DHT22;70512;42.122;24.732;2023-10-09T09:47:01;19.90;39.70
79760;DHT22;70512;42.122;24.732;2023-10-09T09:49:31;20.00;39.20
79760;DHT22;70512;42.122;24.732;2023-10-09T09:52:02;20.10;39.00
79760;DHT22;70512;42.122;24.732;2023-10-09T09:54:32;20.20;38.90
79760;DHT22;70512;42.122;24.732;2023-10-09T09:57:03;20.30;38.90
79760;DHT22;70512;42.122;24.732;2023-10-09T09:59:33;20.40;38.70
79760;DHT22;70512;42.122;24.732;2023-10-09T10:02:02;20.60;38.50
79760;DHT22;70512;42.122;24.732;2023-10-09T10:04:34;20.70;38.00
79760;DHT22;70512;42.122;24.732;2023-10-09T10:07:05;20.80;37.80
79760;DHT22;70512;42.122;24.732;2023-10-09T10:09:42;20.80;37.50
79760;DHT22;70512;42.122;24.732;2023-10-09T10:12:11;20.80;37.60
79760;DHT22;70512;42.122;24.732;2023-10-09T10:14:54;20.80;37.40
79760;DHT22;70512;42.122;24.732;2023-10-09T10:20:26;20.90;37.80
79760;DHT22;70512;42.122;24.732;2023-10-09T10:23:17;21.00;37.50
79760;DHT22;70512;42.122;24.732;2023-10-09T10:25:46;21.00;37.10
79760;DHT22;70512;42.122;24.732;2023-10-09T10:28:19;21.20;37.20
79760;DHT22;70512;42.122;24.732;2023-10-09T10:30:48;21.50;36.60
79760;DHT22;70512;42.122;24.732;2023-10-09T10:33:18;22.00;35.40
79760;DHT22;70512;42.122;24.732;2023-10-09T10:35:47;22.50;34.00
79760;DHT22;70512;42.122;24.732;2023-10-09T10:38:33;23.20;33.60
79760;DHT22;70512;42.122;24.732;2023-10-09T10:41:13;24.00;32.60
79760;DHT22;70512;42.122;24.732;2023-10-09T10:43:44;25.20;30.40
79760;DHT22;70512;42.122;24.732;2023-10-09T10:46:18;26.90;28.70
79760;DHT22;70512;42.122;24.732;2023-10-09T10:48:52;28.80;27.00
79760;DHT22;70512;42.122;24.732;2023-10-09T10:51:37;30.70;24.70
79760;DHT22;70512;42.122;24.732;2023-10-09T10:54:07;32.60;22.50
79760;DHT22;70512;42.122;24.732;2023-10-09T10:56:53;33.80;21.40
79760;DHT22;70512;42.122;24.732;2023-10-09T10:59:22;34.40;20.30
79760;DHT22;70512;42.122;24.732;2023-10-09T11:01:53;35.40;20.00
79760;DHT22;70512;42.122;24.732;2023-10-09T11:04:24;36.10;19.40
79760;DHT22;70512;42.122;24.732;2023-10-09T11:06:54;36.90;18.70
79760;DHT22;70512;42.122;24.732;2023-10-09T11:09:49;37.60;18.20
79760;DHT22;70512;42.122;24.732;2023-10-09T11:12:46;37.30;18.40
79760;DHT22;70512;42.122;24.732;2023-10-09T11:15:36;38.20;17.30
79760;DHT22;70512;42.122;24.732;2023-10-09T11:18:23;38.30;17.50
79760;DHT22;70512;42.122;24.732;2023-10-09T11:20:55;35.80;18.30
79760;DHT22;70512;42.122;24.732;2023-10-09T11:23:25;34.00;19.50
79760;DHT22;70512;42.122;24.732;2023-10-09T11:26:02;34.50;19.80
79760;DHT22;70512;42.122;24.732;2023-10-09T11:29:08;36.00;19.00
79760;DHT22;70512;42.122;24.732;2023-10-09T11:32:07;37.90;17.80
79760;DHT22;70512;42.122;24.732;2023-10-09T11:34:39;39.10;16.60
79760;DHT22;70512;42.122;24.732;2023-10-09T11:37:13;38.30;17.30
79760;DHT22;70512;42.122;24.732;2023-10-09T11:39:46;39.40;16.50
79760;DHT22;70512;42.122;24.732;2023-10-09T11:42:21;39.10;16.30
79760;DHT22;70512;42.122;24.732;2023-10-09T11:45:08;38.40;16.40
79760;DHT22;70512;42.122;24.732;2023-10-09T11:47:50;38.90;16.10
79760;DHT22;70512;42.122;24.732;2023-10-09T11:50:44;36.90;16.60
79760;DHT22;70512;42.122;24.732;2023-10-09T11:53:19;37.60;16.90
79760;DHT22;70512;42.122;24.732;2023-10-09T11:55:52;37.90;16.50
79760;DHT22;70512;42.122;24.732;2023-10-09T11:58:25;37.20;16.80
79760;DHT22;70512;42.122;24.732;2023-10-09T12:00:50;37.00;17.10
79760;DHT22;70512;42.122;24.732;2023-10-09T12:03:20;36.80;16.80
79760;DHT22;70512;42.122;24.732;2023-10-09T12:05:54;36.50;17.20
79760;DHT22;70512;42.122;24.732;2023-10-09T12:08:20;38.10;16.40
79760;DHT22;70512;42.122;24.732;2023-10-09T12:10:49;39.70;15.20
79760;DHT22;70512;42.122;24.732;2023-10-09T12:13:16;40.30;14.80
79760;DHT22;70512;42.122;24.732;2023-10-09T12:15:46;39.90;14.80
79760;DHT22;70512;42.122;24.732;2023-10-09T12:18:19;39.70;15.40
79760;DHT22;70512;42.122;24.732;2023-10-09T12:20:45;39.10;16.20
79760;DHT22;70512;42.122;24.732;2023-10-09T12:23:22;37.70;16.30
79760;DHT22;70512;42.122;24.732;2023-10-09T12:25:52;36.30;17.40
79760;DHT22;70512;42.122;24.732;2023-10-09T12:28:21;35.70;17.90
79760;DHT22;70512;42.122;24.732;2023-10-09T12:30:52;35.70;18.10
79760;DHT22;70512;42.122;24.732;2023-10-09T12:33:21;35.40;17.80
79760;DHT22;70512;42.122;24.732;2023-10-09T12:35:57;35.60;17.70
79760;DHT22;70512;42.122;24.732;2023-10-09T12:38:26;35.50;18.30
79760;DHT22;70512;42.122;24.732;2023-10-09T12:41:06;35.00;18.00
79760;DHT22;70512;42.122;24.732;2023-10-09T12:43:48;34.60;18.60
79760;DHT22;70512;42.122;24.732;2023-10-09T12:46:16;34.00;18.80
79760;DHT22;70512;42.122;24.732;2023-10-09T12:48:44;33.00;19.60
79760;DHT22;70512;42.122;24.732;2023-10-09T12:51:15;32.10;20.30
79760;DHT22;70512;42.122;24.732;2023-10-09T12:53:44;31.60;20.80
79760;DHT22;70512;42.122;24.732;2023-10-09T12:56:12;30.70;21.50
79760;DHT22;70512;42.122;24.732;2023-10-09T12:58:40;29.90;22.30
79760;DHT22;70512;42.122;24.732;2023-10-09T13:01:10;29.90;22.70
79760;DHT22;70512;42.122;24.732;2023-10-09T13:03:40;30.30;22.20
79760;DHT22;70512;42.122;24.732;2023-10-09T13:06:07;29.30;23.30
79760;DHT22;70512;42.122;24.732;2023-10-09T13:08:37;29.80;22.80
79760;DHT22;70512;42.122;24.732;2023-10-09T13:11:08;31.20;21.90
79760;DHT22;70512;42.122;24.732;2023-10-09T13:13:43;32.90;21.20
79760;DHT22;70512;42.122;24.732;2023-10-09T13:16:14;34.60;19.20
79760;DHT22;70512;42.122;24.732;2023-10-09T13:18:52;35.70;18.30
79760;DHT22;70512;42.122;24.732;2023-10-09T13:21:29;37.50;17.30
79760;DHT22;70512;42.122;24.732;2023-10-09T13:23:55;38.80;16.30
79760;DHT22;70512;42.122;24.732;2023-10-09T13:26:24;39.60;15.60
79760;DHT22;70512;42.122;24.732;2023-10-09T13:28:55;39.30;15.60
79760;DHT22;70512;42.122;24.732;2023-10-09T13:31:25;37.60;16.30
79760;DHT22;70512;42.122;24.732;2023-10-09T13:33:54;35.80;17.40
79760;DHT22;70512;42.122;24.732;2023-10-09T13:36:26;34.20;18.80
79760;DHT22;70512;42.122;24.732;2023-10-09T13:38:54;33.30;19.50
79760;DHT22;70512;42.122;24.732;2023-10-09T13:41:23;33.00;19.80
79760;DHT22;70512;42.122;24.732;2023-10-09T13:43:55;32.90;19.80
79760;DHT22;70512;42.122;24.732;2023-10-09T13:46:24;33.00;19.60
79760;DHT22;70512;42.122;24.732;2023-10-09T13:48:52;32.80;19.70
79760;DHT22;70512;42.122;24.732;2023-10-09T13:51:19;32.40;20.00
79760;DHT22;70512;42.122;24.732;2023-10-09T13:53:49;32.60;20.10
79760;DHT22;70512;42.122;24.732;2023-10-09T13:56:18;33.60;20.00
79760;DHT22;70512;42.122;24.732;2023-10-09T13:58:48;34.20;19.10
79760;DHT22;70512;42.122;24.732;2023-10-09T14:01:18;35.40;18.10
79760;DHT22;70512;42.122;24.732;2023-10-09T14:03:50;36.30;17.90
79760;DHT22;70512;42.122;24.732;2023-10-09T14:06:19;37.10;16.80
79760;DHT22;70512;42.122;24.732;2023-10-09T14:08:48;37.60;16.30
79760;DHT22;70512;42.122;24.732;2023-10-09T14:11:17;37.50;16.00
79760;DHT22;70512;42.122;24.732;2023-10-09T14:13:45;37.50;16.70
79760;DHT22;70512;42.122;24.732;2023-10-09T14:16:14;37.40;16.20
79760;DHT22;70512;42.122;24.732;2023-10-09T14:18:51;37.30;16.60
79760;DHT22;70512;42.122;24.732;2023-10-09T14:21:25;37.40;16.20
79760;DHT22;70512;42.122;24.732;2023-10-09T14:23:55;37.00;16.30
79760;DHT22;70512;42.122;24.732;2023-10-09T14:26:27;36.00;16.80
79760;DHT22;70512;42.122;24.732;2023-10-09T14:28:56;35.10;17.80
79760;DHT22;70512;42.122;24.732;2023-10-09T14:31:25;34.80;18.10
79760;DHT22;70512;42.122;24.732;2023-10-09T14:33:56;34.10;18.60
79760;DHT22;70512;42.122;24.732;2023-10-09T14:36:24;32.90;19.60
79760;DHT22;70512;42.122;24.732;2023-10-09T14:38:53;31.60;20.80
79760;DHT22;70512;42.122;24.732;2023-10-09T14:41:23;30.50;21.30
79760;DHT22;70512;42.122;24.732;2023-10-09T14:43:53;29.50;22.20
79760;DHT22;70512;42.122;24.732;2023-10-09T14:46:21;28.60;23.40
79760;DHT22;70512;42.122;24.732;2023-10-09T14:48:56;27.90;24.20
79760;DHT22;70512;42.122;24.732;2023-10-09T14:51:24;27.30;24.70
79760;DHT22;70512;42.122;24.732;2023-10-09T14:53:57;26.90;25.10
79760;DHT22;70512;42.122;24.732;2023-10-09T14:56:25;26.50;25.60
79760;DHT22;70512;42.122;24.732;2023-10-09T14:58:58;26.10;26.30
79760;DHT22;70512;42.122;24.732;2023-10-09T15:01:32;25.70;26.70
79760;DHT22;70512;42.122;24.732;2023-10-09T15:04:00;25.40;27.00
79760;DHT22;70512;42.122;24.732;2023-10-09T15:06:30;25.20;27.20
79760;DHT22;70512;42.122;24.732;2023-10-09T15:08:58;24.90;27.60
79760;DHT22;70512;42.122;24.732;2023-10-09T15:11:28;24.60;27.90
79760;DHT22;70512;42.122;24.732;2023-10-09T15:13:56;24.30;28.40
79760;DHT22;70512;42.122;24.732;2023-10-09T15:16:25;24.10;28.80
79760;DHT22;70512;42.122;24.732;2023-10-09T15:18:55;23.90;29.20
79760;DHT22;70512;42.122;24.732;2023-10-09T15:21:24;23.70;29.50
79760;DHT22;70512;42.122;24.732;2023-10-09T15:23:54;23.40;29.80
79760;DHT22;70512;42.122;24.732;2023-10-09T15:26:23;23.30;30.10
79760;DHT22;70512;42.122;24.732;2023-10-09T15:28:52;23.10;30.50
79760;DHT22;70512;42.122;24.732;2023-10-09T15:31:19;23.00;30.70
79760;DHT22;70512;42.122;24.732;2023-10-09T15:33:48;22.90;31.00
79760;DHT22;70512;42.122;24.732;2023-10-09T15:36:17;22.70;31.30
79760;DHT22;70512;42.122;24.732;2023-10-09T15:38:48;22.50;31.70
79760;DHT22;70512;42.122;24.732;2023-10-09T15:41:17;22.30;32.00
79760;DHT22;70512;42.122;24.732;2023-10-09T15:43:46;22.20;32.20
79760;DHT22;70512;42.122;24.732;2023-10-09T15:46:14;22.10;33.00
79760;DHT22;70512;42.122;24.732;2023-10-09T15:48:42;22.00;33.40
79760;DHT22;70512;42.122;24.732;2023-10-09T15:51:11;21.80;33.60